sensor_id;sensor_type;location;lat;lon;timestamp;P1;durP1;ratioP1;P2;durP2;ratioP2
73693;SDS011;61997;53.974;11.670;2023-12-22T00:00:11;7.88;;;2.20;;
73693;SDS011;61997;53.974;11.670;2023-12-22T00:02:38;6.60;;;2.00;;
73693;SDS011;61997;53.974;11.670;2023-12-22T00:05:05;11.50;;;2.80;;
73693;SDS011;61997;53.974;11.670;2023-12-22T00:07:30;5.78;;;2.10;;
73693;SDS011;61997;53.974;11.670;2023-12-22T00:09:56;10.93;;;2.95;;
73693;SDS011;61997;53.974;11.670;2023-12-22T00:12:22;5.35;;;2.65;;
73693;SDS011;61997;53.974;11.670;2023-12-22T00:14:48;7.88;;;1.75;;
73693;SDS011;61997;53.974;11.670;2023-12-22T00:17:13;10.93;;;2.42;;
73693;SDS011;61997;53.974;11.670;2023-12-22T00:19:39;7.43;;;2.45;;
73693;SDS011;61997;53.974;11.670;2023-12-22T00:22:05;6.00;;;2.25;;
73693;SDS011;61997;53.974;11.670;2023-12-22T00:24:30;9.63;;;2.83;;
73693;SDS011;61997;53.974;11.670;2023-12-22T00:26:56;5.80;;;2.53;;
73693;SDS011;61997;53.974;11.670;2023-12-22T00:29:22;9.60;;;2.10;;
73693;SDS011;61997;53.974;11.670;2023-12-22T00:31:47;7.20;;;1.92;;
73693;SDS011;61997;53.974;11.670;2023-12-22T00:34:12;9.20;;;1.75;;
73693;SDS011;61997;53.974;11.670;2023-12-22T00:36:38;6.10;;;1.50;;
73693;SDS011;61997;53.974;11.670;2023-12-22T00:39:03;6.50;;;1.98;;
73693;SDS011;61997;53.974;11.670;2023-12-22T00:41:29;6.20;;;1.77;;
73693;SDS011;61997;53.974;11.670;2023-12-22T00:43:54;10.57;;;2.78;;
73693;SDS011;61997;53.974;11.670;2023-12-22T00:46:19;6.00;;;1.42;;
73693;SDS011;61997;53.974;11.670;2023-12-22T00:48:45;8.15;;;2.10;;
73693;SDS011;61997;53.974;11.670;2023-12-22T00:51:11;7.80;;;1.92;;
73693;SDS011;61997;53.974;11.670;2023-12-22T00:53:36;6.93;;;1.98;;
73693;SDS011;61997;53.974;11.670;2023-12-22T00:56:01;7.32;;;1.45;;
73693;SDS011;61997;53.974;11.670;2023-12-22T00:58:31;6.70;;;1.42;;
73693;SDS011;61997;53.974;11.670;2023-12-22T01:00:56;7.63;;;1.98;;
73693;SDS011;61997;53.974;11.670;2023-12-22T01:03:21;4.72;;;1.85;;
73693;SDS011;61997;53.974;11.670;2023-12-22T01:05:47;6.72;;;1.77;;
73693;SDS011;61997;53.974;11.670;2023-12-22T01:08:12;6.55;;;1.73;;
73693;SDS011;61997;53.974;11.670;2023-12-22T01:10:38;5.90;;;1.55;;
73693;SDS011;61997;53.974;11.670;2023-12-22T01:13:03;9.90;;;2.08;;
73693;SDS011;61997;53.974;11.670;2023-12-22T01:15:28;8.90;;;1.50;;
73693;SDS011;61997;53.974;11.670;2023-12-22T01:17:54;7.35;;;1.63;;
73693;SDS011;61997;53.974;11.670;2023-12-22T01:20:19;4.70;;;1.33;;
73693;SDS011;61997;53.974;11.670;2023-12-22T01:22:45;5.82;;;1.92;;
73693;SDS011;61997;53.974;11.670;2023-12-22T01:25:10;6.30;;;1.63;;
73693;SDS011;61997;53.974;11.670;2023-12-22T01:27:35;7.53;;;1.52;;
73693;SDS011;61997;53.974;11.670;2023-12-22T01:30:01;4.72;;;1.20;;
73693;SDS011;61997;53.974;11.670;2023-12-22T01:32:26;6.22;;;1.13;;
73693;SDS011;61997;53.974;11.670;2023-12-22T01:34:57;4.78;;;1.58;;
73693;SDS011;61997;53.974;11.670;2023-12-22T01:37:25;5.28;;;1.15;;
73693;SDS011;61997;53.974;11.670;2023-12-22T01:39:50;6.88;;;1.42;;
73693;SDS011;61997;53.974;11.670;2023-12-22T01:42:15;9.80;;;1.92;;
73693;SDS011;61997;53.974;11.670;2023-12-22T01:44:41;4.35;;;1.33;;
73693;SDS011;61997;53.974;11.670;2023-12-22T01:47:06;3.97;;;1.38;;
73693;SDS011;61997;53.974;11.670;2023-12-22T01:49:31;6.47;;;1.30;;
73693;SDS011;61997;53.974;11.670;2023-12-22T01:51:57;4.50;;;1.50;;
73693;SDS011;61997;53.974;11.670;2023-12-22T01:54:22;8.82;;;1.60;;
73693;SDS011;61997;53.974;11.670;2023-12-22T01:56:48;6.50;;;1.08;;
73693;SDS011;61997;53.974;11.670;2023-12-22T01:59:13;7.03;;;1.70;;
73693;SDS011;61997;53.974;11.670;2023-12-22T02:01:39;7.93;;;1.60;;
73693;SDS011;61997;53.974;11.670;2023-12-22T02:04:04;2.55;;;1.15;;
73693;SDS011;61997;53.974;11.670;2023-12-22T02:06:30;4.20;;;1.50;;
73693;SDS011;61997;53.974;11.670;2023-12-22T02:08:56;6.95;;;1.33;;
73693;SDS011;61997;53.974;11.670;2023-12-22T02:11:22;5.25;;;1.35;;
73693;SDS011;61997;53.974;11.670;2023-12-22T02:13:48;6.57;;;2.20;;
73693;SDS011;61997;53.974;11.670;2023-12-22T02:16:18;4.35;;;1.10;;
73693;SDS011;61997;53.974;11.670;2023-12-22T02:18:47;4.00;;;1.20;;
73693;SDS011;61997;53.974;11.670;2023-12-22T02:21:15;4.35;;;1.33;;
73693;SDS011;61997;53.974;11.670;2023-12-22T02:23:40;4.72;;;1.23;;
73693;SDS011;61997;53.974;11.670;2023-12-22T02:28:58;5.18;;;1.60;;
73693;SDS011;61997;53.974;11.670;2023-12-22T02:31:36;5.78;;;0.98;;
73693;SDS011;61997;53.974;11.670;2023-12-22T02:34:04;4.70;;;1.20;;
73693;SDS011;61997;53.974;11.670;2023-12-22T02:36:33;6.93;;;1.30;;
73693;SDS011;61997;53.974;11.670;2023-12-22T02:39:01;6.35;;;1.25;;
73693;SDS011;61997;53.974;11.670;2023-12-22T02:41:26;3.70;;;1.25;;
73693;SDS011;61997;53.974;11.670;2023-12-22T02:43:52;3.78;;;1.23;;
73693;SDS011;61997;53.974;11.670;2023-12-22T02:46:17;6.55;;;1.30;;
73693;SDS011;61997;53.974;11.670;2023-12-22T02:48:43;6.35;;;1.33;;
73693;SDS011;61997;53.974;11.670;2023-12-22T02:51:08;4.43;;;1.20;;
73693;SDS011;61997;53.974;11.670;2023-12-22T02:53:33;2.80;;;1.00;;
73693;SDS011;61997;53.974;11.670;2023-12-22T02:55:59;5.95;;;1.30;;
73693;SDS011;61997;53.974;11.670;2023-12-22T02:58:24;5.05;;;1.10;;
73693;SDS011;61997;53.974;11.670;2023-12-22T03:00:49;2.67;;;0.95;;
73693;SDS011;61997;53.974;11.670;2023-12-22T03:03:15;4.80;;;1.08;;
73693;SDS011;61997;53.974;11.670;2023-12-22T03:05:40;9.95;;;1.83;;
73693;SDS011;61997;53.974;11.670;2023-12-22T03:08:06;3.85;;;1.30;;
73693;SDS011;61997;53.974;11.670;2023-12-22T03:10:31;5.97;;;1.58;;
73693;SDS011;61997;53.974;11.670;2023-12-22T03:12:56;4.78;;;1.15;;
73693;SDS011;61997;53.974;11.670;2023-12-22T03:15:22;3.85;;;1.40;;
73693;SDS011;61997;53.974;11.670;2023-12-22T03:17:47;5.93;;;1.40;;
73693;SDS011;61997;53.974;11.670;2023-12-22T03:20:12;3.55;;;1.08;;
73693;SDS011;61997;53.974;11.670;2023-12-22T03:22:38;5.20;;;1.73;;
73693;SDS011;61997;53.974;11.670;2023-12-22T03:25:03;3.63;;;1.42;;
73693;SDS011;61997;53.974;11.670;2023-12-22T03:27:29;1.92;;;1.45;;
73693;SDS011;61997;53.974;11.670;2023-12-22T03:29:54;3.90;;;0.90;;
73693;SDS011;61997;53.974;11.670;2023-12-22T03:32:20;5.93;;;1.52;;
73693;SDS011;61997;53.974;11.670;2023-12-22T03:34:45;6.22;;;1.65;;
73693;SDS011;61997;53.974;11.670;2023-12-22T03:37:10;6.93;;;2.03;;
73693;SDS011;61997;53.974;11.670;2023-12-22T03:39:36;4.63;;;1.35;;
73693;SDS011;61997;53.974;11.670;2023-12-22T03:42:01;4.65;;;1.50;;
73693;SDS011;61997;53.974;11.670;2023-12-22T03:44:26;3.10;;;0.90;;
73693;SDS011;61997;53.974;11.670;2023-12-22T03:46:52;5.45;;;1.63;;
73693;SDS011;61997;53.974;11.670;2023-12-22T03:49:18;2.63;;;0.80;;
73693;SDS011;61997;53.974;11.670;2023-12-22T03:51:44;4.95;;;1.23;;
73693;SDS011;61997;53.974;11.670;2023-12-22T03:54:09;3.92;;;1.30;;
73693;SDS011;61997;53.974;11.670;2023-12-22T03:56:35;5.70;;;1.17;;
73693;SDS011;61997;53.974;11.670;2023-12-22T03:59:00;6.55;;;1.00;;
73693;SDS011;61997;53.974;11.670;2023-12-22T04:01:26;6.90;;;1.48;;
73693;SDS011;61997;53.974;11.670;2023-12-22T04:03:51;5.90;;;1.13;;
73693;SDS011;61997;53.974;11.670;2023-12-22T04:06:16;5.55;;;1.70;;
73693;SDS011;61997;53.974;11.670;2023-12-22T04:08:42;4.65;;;1.20;;
73693;SDS011;61997;53.974;11.670;2023-12-22T04:11:07;4.47;;;1.10;;
73693;SDS011;61997;53.974;11.670;2023-12-22T04:13:32;5.80;;;1.38;;
73693;SDS011;61997;53.974;11.670;2023-12-22T04:15:58;3.22;;;0.80;;
73693;SDS011;61997;53.974;11.670;2023-12-22T04:18:23;4.50;;;0.95;;
73693;SDS011;61997;53.974;11.670;2023-12-22T04:20:48;2.28;;;0.82;;
73693;SDS011;61997;53.974;11.670;2023-12-22T04:23:18;3.30;;;0.93;;
73693;SDS011;61997;53.974;11.670;2023-12-22T04:25:44;3.60;;;0.98;;
73693;SDS011;61997;53.974;11.670;2023-12-22T04:28:09;5.78;;;1.40;;
73693;SDS011;61997;53.974;11.670;2023-12-22T04:30:35;4.88;;;0.80;;
73693;SDS011;61997;53.974;11.670;2023-12-22T04:33:00;3.45;;;1.17;;
73693;SDS011;61997;53.974;11.670;2023-12-22T04:35:26;3.42;;;0.98;;
73693;SDS011;61997;53.974;11.670;2023-12-22T04:37:51;3.53;;;1.10;;
73693;SDS011;61997;53.974;11.670;2023-12-22T04:40:16;3.70;;;1.02;;
73693;SDS011;61997;53.974;11.670;2023-12-22T04:42:42;4.57;;;0.75;;
73693;SDS011;61997;53.974;11.670;2023-12-22T04:45:07;4.10;;;0.80;;
73693;SDS011;61997;53.974;11.670;2023-12-22T04:47:32;3.47;;;1.10;;
73693;SDS011;61997;53.974;11.670;2023-12-22T04:49:58;4.88;;;1.05;;
73693;SDS011;61997;53.974;11.670;2023-12-22T04:52:23;4.25;;;1.27;;
73693;SDS011;61997;53.974;11.670;2023-12-22T04:54:48;2.63;;;0.55;;
73693;SDS011;61997;53.974;11.670;2023-12-22T04:57:15;3.83;;;0.80;;
73693;SDS011;61997;53.974;11.670;2023-12-22T04:59:40;3.72;;;0.80;;
73693;SDS011;61997;53.974;11.670;2023-12-22T05:02:06;2.50;;;0.77;;
73693;SDS011;61997;53.974;11.670;2023-12-22T05:04:31;2.33;;;0.52;;
73693;SDS011;61997;53.974;11.670;2023-12-22T05:06:57;5.22;;;1.55;;
73693;SDS011;61997;53.974;11.670;2023-12-22T05:09:22;2.22;;;0.50;;
73693;SDS011;61997;53.974;11.670;2023-12-22T05:11:50;1.98;;;0.93;;
73693;SDS011;61997;53.974;11.670;2023-12-22T05:14:15;2.80;;;0.88;;
73693;SDS011;61997;53.974;11.670;2023-12-22T05:16:40;1.52;;;0.57;;
73693;SDS011;61997;53.974;11.670;2023-12-22T05:19:06;1.73;;;0.52;;
73693;SDS011;61997;53.974;11.670;2023-12-22T05:21:31;2.55;;;0.77;;
73693;SDS011;61997;53.974;11.670;2023-12-22T05:23:57;6.32;;;1.20;;
73693;SDS011;61997;53.974;11.670;2023-12-22T05:26:22;1.45;;;0.63;;
73693;SDS011;61997;53.974;11.670;2023-12-22T05:28:49;2.40;;;0.57;;
73693;SDS011;61997;53.974;11.670;2023-12-22T05:31:14;1.80;;;0.55;;
73693;SDS011;61997;53.974;11.670;2023-12-22T05:33:40;3.55;;;0.70;;
73693;SDS011;61997;53.974;11.670;2023-12-22T05:36:06;2.65;;;0.70;;
73693;SDS011;61997;53.974;11.670;2023-12-22T05:38:32;3.35;;;0.80;;
73693;SDS011;61997;53.974;11.670;2023-12-22T05:40:57;3.83;;;0.47;;
73693;SDS011;61997;53.974;11.670;2023-12-22T05:43:22;2.15;;;0.80;;
73693;SDS011;61997;53.974;11.670;2023-12-22T05:45:48;2.10;;;0.65;;
73693;SDS011;61997;53.974;11.670;2023-12-22T05:48:13;4.68;;;0.88;;
73693;SDS011;61997;53.974;11.670;2023-12-22T05:50:38;2.22;;;0.80;;
73693;SDS011;61997;53.974;11.670;2023-12-22T05:53:04;4.90;;;1.15;;
73693;SDS011;61997;53.974;11.670;2023-12-22T05:55:29;1.85;;;0.70;;
73693;SDS011;61997;53.974;11.670;2023-12-22T05:57:55;6.05;;;0.88;;
73693;SDS011;61997;53.974;11.670;2023-12-22T06:00:20;2.10;;;0.77;;
73693;SDS011;61997;53.974;11.670;2023-12-22T06:02:46;3.67;;;0.95;;
73693;SDS011;61997;53.974;11.670;2023-12-22T06:05:11;2.42;;;0.80;;
73693;SDS011;61997;53.974;11.670;2023-12-22T06:07:37;3.72;;;1.20;;
73693;SDS011;61997;53.974;11.670;2023-12-22T06:10:02;4.53;;;0.77;;
73693;SDS011;61997;53.974;11.670;2023-12-22T06:12:28;5.40;;;0.90;;
73693;SDS011;61997;53.974;11.670;2023-12-22T06:14:53;4.60;;;1.23;;
73693;SDS011;61997;53.974;11.670;2023-12-22T06:17:18;3.65;;;0.80;;
73693;SDS011;61997;53.974;11.670;2023-12-22T06:19:44;4.53;;;0.95;;
73693;SDS011;61997;53.974;11.670;2023-12-22T06:22:09;5.43;;;1.15;;
73693;SDS011;61997;53.974;11.670;2023-12-22T06:24:35;3.58;;;0.85;;
73693;SDS011;61997;53.974;11.670;2023-12-22T06:27:01;4.07;;;1.23;;
73693;SDS011;61997;53.974;11.670;2023-12-22T06:29:26;2.95;;;1.17;;
73693;SDS011;61997;53.974;11.670;2023-12-22T06:31:51;2.40;;;0.70;;
73693;SDS011;61997;53.974;11.670;2023-12-22T06:34:17;4.40;;;1.30;;
73693;SDS011;61997;53.974;11.670;2023-12-22T06:36:42;1.95;;;0.90;;
73693;SDS011;61997;53.974;11.670;2023-12-22T06:39:08;3.60;;;1.15;;
73693;SDS011;61997;53.974;11.670;2023-12-22T06:41:33;7.20;;;1.00;;
73693;SDS011;61997;53.974;11.670;2023-12-22T06:43:59;7.15;;;0.80;;
73693;SDS011;61997;53.974;11.670;2023-12-22T06:46:25;3.58;;;0.90;;
73693;SDS011;61997;53.974;11.670;2023-12-22T06:51:26;3.67;;;0.73;;
73693;SDS011;61997;53.974;11.670;2023-12-22T06:53:53;10.10;;;1.20;;
73693;SDS011;61997;53.974;11.670;2023-12-22T06:56:24;3.65;;;0.77;;
73693;SDS011;61997;53.974;11.670;2023-12-22T06:58:51;2.03;;;0.80;;
73693;SDS011;61997;53.974;11.670;2023-12-22T07:01:21;3.78;;;0.90;;
73693;SDS011;61997;53.974;11.670;2023-12-22T07:03:57;5.53;;;1.33;;
73693;SDS011;61997;53.974;11.670;2023-12-22T07:06:25;3.63;;;1.15;;
73693;SDS011;61997;53.974;11.670;2023-12-22T07:08:57;8.13;;;1.13;;
73693;SDS011;61997;53.974;11.670;2023-12-22T07:11:44;6.25;;;1.10;;
73693;SDS011;61997;53.974;11.670;2023-12-22T07:14:10;3.05;;;1.02;;
73693;SDS011;61997;53.974;11.670;2023-12-22T07:16:36;3.10;;;0.68;;
73693;SDS011;61997;53.974;11.670;2023-12-22T07:19:02;6.75;;;1.52;;
73693;SDS011;61997;53.974;11.670;2023-12-22T07:21:27;4.80;;;0.90;;
73693;SDS011;61997;53.974;11.670;2023-12-22T07:23:53;6.85;;;1.33;;
73693;SDS011;61997;53.974;11.670;2023-12-22T07:26:18;3.75;;;0.90;;
73693;SDS011;61997;53.974;11.670;2023-12-22T07:28:43;5.65;;;1.00;;
73693;SDS011;61997;53.974;11.670;2023-12-22T07:31:09;2.67;;;0.75;;
73693;SDS011;61997;53.974;11.670;2023-12-22T07:33:34;4.45;;;1.80;;
73693;SDS011;61997;53.974;11.670;2023-12-22T07:36:00;4.15;;;1.02;;
73693;SDS011;61997;53.974;11.670;2023-12-22T07:38:25;3.75;;;0.82;;
73693;SDS011;61997;53.974;11.670;2023-12-22T07:40:50;5.55;;;1.27;;
73693;SDS011;61997;53.974;11.670;2023-12-22T07:43:16;4.47;;;0.90;;
73693;SDS011;61997;53.974;11.670;2023-12-22T07:45:41;2.75;;;1.20;;
73693;SDS011;61997;53.974;11.670;2023-12-22T07:48:07;5.82;;;1.23;;
73693;SDS011;61997;53.974;11.670;2023-12-22T07:50:33;4.80;;;0.90;;
73693;SDS011;61997;53.974;11.670;2023-12-22T07:52:58;5.55;;;1.10;;
73693;SDS011;61997;53.974;11.670;2023-12-22T07:55:24;3.80;;;0.93;;
73693;SDS011;61997;53.974;11.670;2023-12-22T07:57:49;3.70;;;0.98;;
73693;SDS011;61997;53.974;11.670;2023-12-22T08:00:15;6.47;;;1.50;;
73693;SDS011;61997;53.974;11.670;2023-12-22T08:02:41;3.70;;;0.80;;
73693;SDS011;61997;53.974;11.670;2023-12-22T08:05:07;5.07;;;0.90;;
73693;SDS011;61997;53.974;11.670;2023-12-22T08:07:33;2.65;;;1.15;;
73693;SDS011;61997;53.974;11.670;2023-12-22T08:09:58;3.58;;;0.80;;
73693;SDS011;61997;53.974;11.670;2023-12-22T08:12:24;2.30;;;1.02;;
73693;SDS011;61997;53.974;11.670;2023-12-22T08:14:49;3.00;;;0.68;;
73693;SDS011;61997;53.974;11.670;2023-12-22T08:17:14;4.93;;;0.90;;
73693;SDS011;61997;53.974;11.670;2023-12-22T08:19:40;8.82;;;1.08;;
73693;SDS011;61997;53.974;11.670;2023-12-22T08:22:11;4.32;;;0.90;;
73693;SDS011;61997;53.974;11.670;2023-12-22T08:24:39;2.75;;;0.75;;
73693;SDS011;61997;53.974;11.670;2023-12-22T08:27:05;4.50;;;0.80;;
73693;SDS011;61997;53.974;11.670;2023-12-22T08:29:33;5.07;;;0.98;;
73693;SDS011;61997;53.974;11.670;2023-12-22T08:31:59;1.88;;;0.73;;
73693;SDS011;61997;53.974;11.670;2023-12-22T08:34:25;3.95;;;0.85;;
73693;SDS011;61997;53.974;11.670;2023-12-22T08:36:51;2.00;;;0.98;;
73693;SDS011;61997;53.974;11.670;2023-12-22T08:39:16;3.00;;;1.13;;
73693;SDS011;61997;53.974;11.670;2023-12-22T08:41:42;4.43;;;1.40;;
73693;SDS011;61997;53.974;11.670;2023-12-22T08:44:07;5.78;;;0.90;;
73693;SDS011;61997;53.974;11.670;2023-12-22T08:46:33;4.07;;;1.20;;
73693;SDS011;61997;53.974;11.670;2023-12-22T08:48:58;5.22;;;0.90;;
73693;SDS011;61997;53.974;11.670;2023-12-22T08:51:25;4.47;;;1.13;;
73693;SDS011;61997;53.974;11.670;2023-12-22T08:53:51;5.97;;;1.10;;
73693;SDS011;61997;53.974;11.670;2023-12-22T08:56:17;3.22;;;1.02;;
73693;SDS011;61997;53.974;11.670;2023-12-22T08:58:43;3.72;;;0.80;;
73693;SDS011;61997;53.974;11.670;2023-12-22T09:01:13;4.68;;;1.00;;
73693;SDS011;61997;53.974;11.670;2023-12-22T09:03:39;3.58;;;0.88;;
73693;SDS011;61997;53.974;11.670;2023-12-22T09:06:09;2.58;;;0.80;;
73693;SDS011;61997;53.974;11.670;2023-12-22T09:08:35;6.47;;;1.35;;
73693;SDS011;61997;53.974;11.670;2023-12-22T09:11:00;3.30;;;0.93;;
73693;SDS011;61997;53.974;11.670;2023-12-22T09:13:26;5.00;;;1.75;;
73693;SDS011;61997;53.974;11.670;2023-12-22T09:15:51;3.40;;;0.85;;
73693;SDS011;61997;53.974;11.670;2023-12-22T09:18:16;3.70;;;0.88;;
73693;SDS011;61997;53.974;11.670;2023-12-22T09:20:42;4.35;;;1.17;;
73693;SDS011;61997;53.974;11.670;2023-12-22T09:23:07;3.47;;;0.70;;
73693;SDS011;61997;53.974;11.670;2023-12-22T09:25:34;3.53;;;0.60;;
73693;SDS011;61997;53.974;11.670;2023-12-22T09:28:00;4.07;;;1.25;;
73693;SDS011;61997;53.974;11.670;2023-12-22T09:30:25;4.88;;;0.77;;
73693;SDS011;61997;53.974;11.670;2023-12-22T09:32:50;2.53;;;0.90;;
73693;SDS011;61997;53.974;11.670;2023-12-22T09:35:16;1.70;;;0.63;;
73693;SDS011;61997;53.974;11.670;2023-12-22T09:37:42;4.32;;;1.08;;
73693;SDS011;61997;53.974;11.670;2023-12-22T09:40:07;5.43;;;0.73;;
73693;SDS011;61997;53.974;11.670;2023-12-22T09:42:35;3.80;;;1.10;;
73693;SDS011;61997;53.974;11.670;2023-12-22T09:45:01;5.97;;;1.23;;
73693;SDS011;61997;53.974;11.670;2023-12-22T09:47:28;5.35;;;1.15;;
73693;SDS011;61997;53.974;11.670;2023-12-22T09:49:55;6.20;;;1.25;;
73693;SDS011;61997;53.974;11.670;2023-12-22T09:52:21;3.08;;;1.58;;
73693;SDS011;61997;53.974;11.670;2023-12-22T09:54:47;4.13;;;2.00;;
73693;SDS011;61997;53.974;11.670;2023-12-22T09:57:13;4.35;;;1.65;;
73693;SDS011;61997;53.974;11.670;2023-12-22T09:59:39;5.07;;;2.05;;
73693;SDS011;61997;53.974;11.670;2023-12-22T10:02:04;6.10;;;1.73;;
73693;SDS011;61997;53.974;11.670;2023-12-22T10:04:31;4.78;;;1.95;;
73693;SDS011;61997;53.974;11.670;2023-12-22T10:06:58;6.70;;;2.38;;
73693;SDS011;61997;53.974;11.670;2023-12-22T10:09:25;4.75;;;2.28;;
73693;SDS011;61997;53.974;11.670;2023-12-22T10:11:52;3.85;;;1.70;;
73693;SDS011;61997;53.974;11.670;2023-12-22T10:14:18;7.05;;;2.35;;
73693;SDS011;61997;53.974;11.670;2023-12-22T10:16:50;7.80;;;2.58;;
73693;SDS011;61997;53.974;11.670;2023-12-22T10:19:17;8.75;;;3.03;;
73693;SDS011;61997;53.974;11.670;2023-12-22T10:21:42;7.18;;;3.25;;
73693;SDS011;61997;53.974;11.670;2023-12-22T10:24:07;7.72;;;2.78;;
73693;SDS011;61997;53.974;11.670;2023-12-22T10:27:09;6.85;;;2.95;;
73693;SDS011;61997;53.974;11.670;2023-12-22T10:29:35;12.02;;;3.40;;
73693;SDS011;61997;53.974;11.670;2023-12-22T10:32:02;7.47;;;3.50;;
73693;SDS011;61997;53.974;11.670;2023-12-22T10:34:28;8.27;;;3.38;;
73693;SDS011;61997;53.974;11.670;2023-12-22T10:36:56;8.10;;;3.42;;
73693;SDS011;61997;53.974;11.670;2023-12-22T10:39:21;8.30;;;3.90;;
73693;SDS011;61997;53.974;11.670;2023-12-22T10:41:47;8.75;;;2.92;;
73693;SDS011;61997;53.974;11.670;2023-12-22T10:44:14;8.18;;;3.20;;
73693;SDS011;61997;53.974;11.670;2023-12-22T10:46:39;9.18;;;3.10;;
73693;SDS011;61997;53.974;11.670;2023-12-22T10:49:07;9.18;;;3.35;;
73693;SDS011;61997;53.974;11.670;2023-12-22T10:51:32;8.27;;;2.83;;
73693;SDS011;61997;53.974;11.670;2023-12-22T10:53:58;7.95;;;2.92;;
73693;SDS011;61997;53.974;11.670;2023-12-22T10:56:24;5.32;;;2.83;;
73693;SDS011;61997;53.974;11.670;2023-12-22T10:58:50;8.43;;;2.90;;
73693;SDS011;61997;53.974;11.670;2023-12-22T11:01:17;10.07;;;3.22;;
73693;SDS011;61997;53.974;11.670;2023-12-22T11:03:44;6.57;;;3.42;;
73693;SDS011;61997;53.974;11.670;2023-12-22T11:06:10;13.95;;;3.20;;
73693;SDS011;61997;53.974;11.670;2023-12-22T11:08:36;9.15;;;2.75;;
73693;SDS011;61997;53.974;11.670;2023-12-22T11:11:01;10.73;;;3.03;;
73693;SDS011;61997;53.974;11.670;2023-12-22T11:13:42;9.50;;;2.55;;
73693;SDS011;61997;53.974;11.670;2023-12-22T11:16:08;8.23;;;2.60;;
73693;SDS011;61997;53.974;11.670;2023-12-22T11:18:34;4.20;;;2.25;;
73693;SDS011;61997;53.974;11.670;2023-12-22T11:21:00;6.60;;;2.33;;
73693;SDS011;61997;53.974;11.670;2023-12-22T11:23:26;5.07;;;2.13;;
73693;SDS011;61997;53.974;11.670;2023-12-22T11:25:53;8.85;;;2.88;;
73693;SDS011;61997;53.974;11.670;2023-12-22T11:28:19;8.48;;;2.22;;
73693;SDS011;61997;53.974;11.670;2023-12-22T11:30:46;7.68;;;2.35;;
73693;SDS011;61997;53.974;11.670;2023-12-22T11:33:15;5.55;;;2.05;;
73693;SDS011;61997;53.974;11.670;2023-12-22T11:35:41;9.45;;;2.05;;
73693;SDS011;61997;53.974;11.670;2023-12-22T11:38:06;4.40;;;1.73;;
73693;SDS011;61997;53.974;11.670;2023-12-22T11:40:33;5.93;;;2.10;;
73693;SDS011;61997;53.974;11.670;2023-12-22T11:42:59;8.85;;;2.30;;
73693;SDS011;61997;53.974;11.670;2023-12-22T11:45:25;5.75;;;1.98;;
73693;SDS011;61997;53.974;11.670;2023-12-22T11:47:50;6.85;;;1.77;;
73693;SDS011;61997;53.974;11.670;2023-12-22T11:50:29;6.65;;;1.73;;
73693;SDS011;61997;53.974;11.670;2023-12-22T11:53:16;5.45;;;1.42;;
73693;SDS011;61997;53.974;11.670;2023-12-22T11:56:11;5.93;;;1.70;;
73693;SDS011;61997;53.974;11.670;2023-12-22T11:58:44;4.93;;;1.50;;
73693;SDS011;61997;53.974;11.670;2023-12-22T12:01:19;5.38;;;1.60;;
73693;SDS011;61997;53.974;11.670;2023-12-22T12:03:49;3.67;;;1.45;;
73693;SDS011;61997;53.974;11.670;2023-12-22T12:08:52;4.07;;;1.45;;
73693;SDS011;61997;53.974;11.670;2023-12-22T12:11:18;5.75;;;1.52;;
73693;SDS011;61997;53.974;11.670;2023-12-22T12:13:45;3.55;;;1.23;;
73693;SDS011;61997;53.974;11.670;2023-12-22T12:16:11;2.92;;;1.00;;
73693;SDS011;61997;53.974;11.670;2023-12-22T12:18:41;3.38;;;1.42;;
73693;SDS011;61997;53.974;11.670;2023-12-22T12:21:07;3.85;;;1.00;;
73693;SDS011;61997;53.974;11.670;2023-12-22T12:23:33;2.03;;;1.10;;
73693;SDS011;61997;53.974;11.670;2023-12-22T12:25:59;3.28;;;1.50;;
73693;SDS011;61997;53.974;11.670;2023-12-22T12:28:31;3.03;;;1.15;;
73693;SDS011;61997;53.974;11.670;2023-12-22T12:31:02;3.05;;;0.90;;
73693;SDS011;61997;53.974;11.670;2023-12-22T12:33:29;2.60;;;1.02;;
73693;SDS011;61997;53.974;11.670;2023-12-22T12:35:56;3.88;;;0.88;;
73693;SDS011;61997;53.974;11.670;2023-12-22T12:38:36;3.92;;;1.48;;
73693;SDS011;61997;53.974;11.670;2023-12-22T12:41:04;3.45;;;1.05;;
73693;SDS011;61997;53.974;11.670;2023-12-22T12:43:32;2.78;;;0.80;;
73693;SDS011;61997;53.974;11.670;2023-12-22T12:46:04;3.33;;;1.17;;
73693;SDS011;61997;53.974;11.670;2023-12-22T12:48:30;3.08;;;1.08;;
73693;SDS011;61997;53.974;11.670;2023-12-22T12:51:00;3.22;;;1.10;;
73693;SDS011;61997;53.974;11.670;2023-12-22T12:53:27;3.50;;;1.40;;
73693;SDS011;61997;53.974;11.670;2023-12-22T12:55:55;4.30;;;1.10;;
73693;SDS011;61997;53.974;11.670;2023-12-22T12:58:21;4.38;;;1.05;;
73693;SDS011;61997;53.974;11.670;2023-12-22T13:00:46;3.78;;;0.90;;
73693;SDS011;61997;53.974;11.670;2023-12-22T13:03:11;3.88;;;0.75;;
73693;SDS011;61997;53.974;11.670;2023-12-22T13:05:37;2.90;;;0.60;;
73693;SDS011;61997;53.974;11.670;2023-12-22T13:08:12;6.75;;;1.17;;
73693;SDS011;61997;53.974;11.670;2023-12-22T13:10:38;2.90;;;1.20;;
73693;SDS011;61997;53.974;11.670;2023-12-22T13:13:04;4.18;;;0.70;;
73693;SDS011;61997;53.974;11.670;2023-12-22T13:15:30;1.75;;;0.65;;
73693;SDS011;61997;53.974;11.670;2023-12-22T13:17:55;2.28;;;0.70;;
73693;SDS011;61997;53.974;11.670;2023-12-22T13:20:21;3.85;;;0.82;;
73693;SDS011;61997;53.974;11.670;2023-12-22T13:22:47;4.32;;;1.17;;
73693;SDS011;61997;53.974;11.670;2023-12-22T13:25:12;3.47;;;1.00;;
73693;SDS011;61997;53.974;11.670;2023-12-22T13:27:48;3.45;;;1.33;;
73693;SDS011;61997;53.974;11.670;2023-12-22T13:30:14;2.63;;;0.70;;
73693;SDS011;61997;53.974;11.670;2023-12-22T13:32:58;3.47;;;0.98;;
73693;SDS011;61997;53.974;11.670;2023-12-22T13:35:23;6.47;;;1.60;;
73693;SDS011;61997;53.974;11.670;2023-12-22T13:37:49;1.30;;;0.68;;
73693;SDS011;61997;53.974;11.670;2023-12-22T13:40:15;1.88;;;0.85;;
73693;SDS011;61997;53.974;11.670;2023-12-22T13:42:40;3.72;;;0.90;;
73693;SDS011;61997;53.974;11.670;2023-12-22T13:45:10;2.38;;;0.68;;
73693;SDS011;61997;53.974;11.670;2023-12-22T13:47:39;4.85;;;1.05;;
73693;SDS011;61997;53.974;11.670;2023-12-22T13:50:12;4.40;;;1.20;;
73693;SDS011;61997;53.974;11.670;2023-12-22T13:52:39;3.42;;;0.70;;
73693;SDS011;61997;53.974;11.670;2023-12-22T13:55:11;7.30;;;1.27;;
73693;SDS011;61997;53.974;11.670;2023-12-22T13:57:40;3.38;;;0.95;;
73693;SDS011;61997;53.974;11.670;2023-12-22T14:00:27;1.98;;;0.77;;
73693;SDS011;61997;53.974;11.670;2023-12-22T14:02:55;4.25;;;0.80;;
73693;SDS011;61997;53.974;11.670;2023-12-22T14:05:21;3.90;;;0.95;;
73693;SDS011;61997;53.974;11.670;2023-12-22T14:07:46;1.70;;;0.40;;
73693;SDS011;61997;53.974;11.670;2023-12-22T14:10:13;1.10;;;0.63;;
73693;SDS011;61997;53.974;11.670;2023-12-22T14:12:40;2.15;;;0.77;;
73693;SDS011;61997;53.974;11.670;2023-12-22T14:15:09;3.47;;;0.90;;
73693;SDS011;61997;53.974;11.670;2023-12-22T14:17:35;3.55;;;0.80;;
73693;SDS011;61997;53.974;11.670;2023-12-22T14:20:01;3.88;;;1.17;;
73693;SDS011;61997;53.974;11.670;2023-12-22T14:22:27;2.83;;;0.70;;
73693;SDS011;61997;53.974;11.670;2023-12-22T14:24:52;3.38;;;0.65;;
73693;SDS011;61997;53.974;11.670;2023-12-22T14:27:18;1.98;;;0.80;;
73693;SDS011;61997;53.974;11.670;2023-12-22T14:29:47;2.38;;;0.90;;
73693;SDS011;61997;53.974;11.670;2023-12-22T14:32:12;4.53;;;0.70;;
73693;SDS011;61997;53.974;11.670;2023-12-22T14:34:39;3.22;;;0.88;;
73693;SDS011;61997;53.974;11.670;2023-12-22T14:37:06;3.58;;;0.70;;